createdAt,value
2018-07-14T00:01:38.436Z,8.93
2018-07-14T00:04:05.966Z,9.93
2018-07-14T00:06:33.497Z,10.70
2018-07-14T00:09:01.009Z,11.47
2018-07-14T00:11:28.552Z,11.87
2018-07-14T00:13:56.092Z,10.77
2018-07-14T00:16:25.269Z,11.77
2018-07-14T00:18:52.816Z,11.67
2018-07-14T00:21:20.404Z,11.23
2018-07-14T00:23:47.949Z,11.57
2018-07-14T00:26:18.069Z,10.73
2018-07-14T00:28:46.484Z,11.73
2018-07-14T00:31:14.584Z,12.63
2018-07-14T00:33:42.119Z,11.07
2018-07-14T00:36:09.635Z,10.33
2018-07-14T00:38:37.186Z,11.03
2018-07-14T00:41:04.748Z,12.60
2018-07-14T00:43:32.275Z,12.77
2018-07-14T00:45:59.792Z,12.00
2018-07-14T00:48:27.316Z,12.30
2018-07-14T00:50:54.864Z,12.17
2018-07-14T00:53:22.646Z,13.17
2018-07-14T00:55:50.267Z,13.13
2018-07-14T00:58:17.808Z,13.13
2018-07-14T01:00:45.338Z,13.27
2018-07-14T01:03:12.872Z,13.63
2018-07-14T01:05:40.384Z,14.00
2018-07-14T01:08:07.913Z,12.30
2018-07-14T01:10:35.551Z,14.97
2018-07-14T01:13:03.113Z,13.17
2018-07-14T01:15:30.624Z,12.33
2018-07-14T01:17:58.165Z,13.33
2018-07-14T01:20:25.693Z,13.67
2018-07-14T01:22:53.240Z,13.00
2018-07-14T01:25:20.740Z,14.33
2018-07-14T01:27:48.260Z,15.00
2018-07-14T01:30:15.828Z,15.70
2018-07-14T01:32:43.377Z,15.23
2018-07-14T01:35:10.896Z,13.23
2018-07-14T01:37:38.443Z,15.00
2018-07-14T01:40:05.975Z,15.43
2018-07-14T01:42:33.552Z,15.43
2018-07-14T01:45:01.065Z,17.57
2018-07-14T01:47:28.737Z,14.70
2018-07-14T01:49:56.244Z,14.93
2018-07-14T01:52:23.791Z,13.57
2018-07-14T01:54:51.392Z,14.00
2018-07-14T01:57:18.929Z,15.07
2018-07-14T01:59:46.435Z,15.17
2018-07-14T02:02:13.964Z,15.37
2018-07-14T02:04:41.463Z,15.73
2018-07-14T02:07:08.991Z,15.33
2018-07-14T02:09:36.512Z,14.13
2018-07-14T02:12:04.075Z,15.57
2018-07-14T02:14:31.578Z,11.77
2018-07-14T02:16:59.140Z,14.30
2018-07-14T02:19:26.664Z,14.80
2018-07-14T02:21:54.220Z,14.70
2018-07-14T02:24:21.780Z,15.83
2018-07-14T02:26:49.291Z,14.70
2018-07-14T02:29:16.951Z,14.60
2018-07-14T02:31:44.675Z,14.87
2018-07-14T02:34:12.214Z,15.87
2018-07-14T02:36:39.894Z,15.73
2018-07-14T02:39:07.456Z,14.50
2018-07-14T02:41:34.985Z,15.00
2018-07-14T02:44:03.373Z,14.50
2018-07-14T02:46:30.885Z,14.37
2018-07-14T02:48:58.416Z,13.30
2018-07-14T02:51:25.924Z,14.20
2018-07-14T02:53:53.444Z,14.63
2018-07-14T02:56:20.964Z,13.77
2018-07-14T02:58:48.532Z,13.73
2018-07-14T03:01:16.032Z,14.53
2018-07-14T03:03:43.578Z,14.50
2018-07-14T03:06:11.079Z,14.43
2018-07-14T03:08:38.605Z,14.10
2018-07-14T03:11:06.128Z,15.07
2018-07-14T03:13:33.669Z,15.37
2018-07-14T03:16:01.188Z,16.13
2018-07-14T03:18:28.721Z,14.40
2018-07-14T03:20:56.231Z,15.03
2018-07-14T03:23:23.788Z,15.07
2018-07-14T03:25:51.336Z,13.97
2018-07-14T03:28:18.872Z,14.37
2018-07-14T03:30:46.384Z,14.53
2018-07-14T03:33:13.942Z,13.53
2018-07-14T03:35:41.458Z,13.47
2018-07-14T03:38:08.988Z,14.10
2018-07-14T03:40:36.504Z,14.30
2018-07-14T03:43:04.064Z,13.67
2018-07-14T03:45:31.572Z,13.50
2018-07-14T03:47:59.128Z,13.60
2018-07-14T03:50:26.652Z,13.17
2018-07-14T03:52:54.190Z,13.00
2018-07-14T03:55:21.711Z,12.93
2018-07-14T03:57:49.243Z,14.00
2018-07-14T04:00:16.756Z,13.50
2018-07-14T04:02:44.263Z,13.27
2018-07-14T04:05:11.787Z,13.97
2018-07-14T04:07:39.304Z,12.97
2018-07-14T04:10:07.124Z,14.03
2018-07-14T04:12:34.629Z,13.60
2018-07-14T04:15:02.168Z,14.17
2018-07-14T04:17:29.687Z,14.00
2018-07-14T04:19:57.223Z,14.73
2018-07-14T04:22:24.749Z,15.47
2018-07-14T04:24:52.301Z,16.53
2018-07-14T04:27:19.808Z,14.60
2018-07-14T04:29:47.332Z,15.87
2018-07-14T04:32:14.840Z,15.50
2018-07-14T04:34:42.367Z,15.10
2018-07-14T04:37:09.867Z,13.97
2018-07-14T04:39:37.403Z,16.00
2018-07-14T04:42:04.964Z,16.43
2018-07-14T04:44:32.496Z,16.27
2018-07-14T04:47:00.007Z,16.17
2018-07-14T04:49:27.599Z,15.67
2018-07-14T04:51:55.044Z,15.80
2018-07-14T04:54:22.571Z,15.40
2018-07-14T04:56:50.095Z,14.03
2018-07-14T04:59:17.619Z,12.90
2018-07-14T05:01:45.180Z,13.20
2018-07-14T05:04:12.804Z,14.10
2018-07-14T05:06:40.472Z,14.97
2018-07-14T05:09:07.958Z,15.13
2018-07-14T05:11:35.532Z,14.10
2018-07-14T05:14:03.325Z,13.43
2018-07-14T05:16:30.941Z,12.93
2018-07-14T05:18:58.499Z,14.93
2018-07-14T05:21:26.110Z,15.27
2018-07-14T05:23:53.795Z,14.90
2018-07-14T05:26:21.330Z,14.33
2018-07-14T05:28:49.276Z,14.47
2018-07-14T05:31:16.819Z,16.27
2018-07-14T05:33:44.376Z,15.77
2018-07-14T05:36:11.947Z,15.67
2018-07-14T05:38:39.521Z,16.43
2018-07-14T05:41:07.100Z,14.90
2018-07-14T05:43:34.656Z,15.73
2018-07-14T05:46:03.268Z,16.07
2018-07-14T05:48:30.827Z,16.10
2018-07-14T05:50:58.397Z,15.77
2018-07-14T05:53:25.953Z,15.47
2018-07-14T05:55:53.524Z,14.83
2018-07-14T05:58:21.086Z,15.73
2018-07-14T06:00:48.765Z,15.10
2018-07-14T06:03:16.308Z,14.87
2018-07-14T06:05:43.930Z,13.70
2018-07-14T06:08:11.629Z,14.67
2018-07-14T06:10:39.292Z,14.47
2018-07-14T06:13:06.827Z,13.27
2018-07-14T06:15:34.460Z,12.77
2018-07-14T06:18:01.972Z,12.93
2018-07-14T06:20:29.511Z,12.13
2018-07-14T06:22:57.044Z,11.80
2018-07-14T06:25:24.604Z,12.13
2018-07-14T06:27:52.128Z,12.20
2018-07-14T06:30:19.699Z,10.70
2018-07-14T06:32:47.236Z,10.30
2018-07-14T06:35:14.820Z,10.43
2018-07-14T06:37:42.764Z,9.07
2018-07-14T06:40:10.326Z,8.87
2018-07-14T06:42:37.832Z,8.03
2018-07-14T06:45:05.591Z,8.07
2018-07-14T06:47:33.156Z,8.00
2018-07-14T06:50:00.700Z,8.00
2018-07-14T06:52:28.253Z,8.20
2018-07-14T06:54:55.824Z,8.17
2018-07-14T06:57:23.334Z,9.43
2018-07-14T06:59:50.895Z,8.47
2018-07-14T07:02:18.404Z,8.17
2018-07-14T07:04:45.965Z,10.43
2018-07-14T07:07:13.481Z,12.20
2018-07-14T07:09:41.020Z,9.77
2018-07-14T07:12:08.548Z,7.80
2018-07-14T07:14:36.115Z,7.70
2018-07-14T07:17:03.689Z,6.97
2018-07-14T07:19:31.224Z,7.00
2018-07-14T07:21:58.755Z,7.47
2018-07-14T07:24:26.280Z,9.60
2018-07-14T07:26:53.783Z,6.67
2018-07-14T07:29:21.316Z,5.80
2018-07-14T07:31:48.816Z,5.90
2018-07-14T07:34:16.472Z,6.10
2018-07-14T07:36:44.038Z,6.33
2018-07-14T07:39:11.548Z,6.00
2018-07-14T07:41:39.871Z,6.50
2018-07-14T07:44:07.736Z,6.17
2018-07-14T07:46:35.264Z,5.93
2018-07-14T07:49:02.777Z,6.30
2018-07-14T07:51:30.292Z,6.07
2018-07-14T07:53:57.812Z,5.40
2018-07-14T07:56:25.543Z,6.07
2018-07-14T07:58:53.090Z,5.57
2018-07-14T08:01:20.742Z,5.87
2018-07-14T08:03:48.257Z,6.30
2018-07-14T08:06:15.784Z,5.83
2018-07-14T08:08:43.409Z,6.17
2018-07-14T08:11:10.844Z,5.93
2018-07-14T08:13:38.348Z,5.70
2018-07-14T08:16:05.935Z,5.87
2018-07-14T08:18:33.452Z,6.47
2018-07-14T08:21:00.979Z,5.77
2018-07-14T08:23:28.588Z,5.73
2018-07-14T08:25:56.261Z,5.90
2018-07-14T08:28:23.788Z,6.10
2018-07-14T08:30:51.324Z,5.57
2018-07-14T08:33:18.832Z,6.13
2018-07-14T08:35:46.357Z,5.70
2018-07-14T08:38:13.962Z,5.50
2018-07-14T08:40:41.460Z,5.67
2018-07-14T08:43:08.972Z,5.43
2018-07-14T08:45:36.479Z,5.67
2018-07-14T08:48:04.083Z,4.70
2018-07-14T08:50:31.664Z,5.57
2018-07-14T08:52:59.631Z,5.10
2018-07-14T08:55:27.136Z,5.53
2018-07-14T08:57:54.669Z,4.80
2018-07-14T09:00:22.171Z,4.70
2018-07-14T09:02:49.687Z,4.87
2018-07-14T09:05:17.206Z,4.83
2018-07-14T09:07:44.757Z,4.60
2018-07-14T09:10:12.275Z,4.30
2018-07-14T09:12:39.799Z,4.23
2018-07-14T09:15:07.520Z,4.77
2018-07-14T09:17:35.264Z,4.53
2018-07-14T09:20:02.812Z,5.07
2018-07-14T09:22:30.400Z,4.60
2018-07-14T09:24:57.923Z,4.10
2018-07-14T09:27:25.472Z,4.27
2018-07-14T09:29:52.985Z,4.20
2018-07-14T09:32:20.528Z,4.10
2018-07-14T09:34:48.045Z,4.10
2018-07-14T09:37:15.609Z,4.00
2018-07-14T09:39:43.117Z,3.63
2018-07-14T09:42:10.655Z,3.97
2018-07-14T09:44:38.229Z,3.90
2018-07-14T09:47:05.714Z,3.30
2018-07-14T09:49:33.265Z,4.33
2018-07-14T09:52:00.800Z,4.00
2018-07-14T09:54:28.312Z,3.80
2018-07-14T09:56:55.892Z,4.20
2018-07-14T09:59:23.401Z,4.47
2018-07-14T10:01:50.955Z,4.00
2018-07-14T10:04:18.481Z,4.03
2018-07-14T10:06:45.928Z,4.40
2018-07-14T10:09:13.444Z,4.17
2018-07-14T10:11:40.968Z,3.93
2018-07-14T10:14:08.476Z,4.63
2018-07-14T10:16:36.028Z,4.17
2018-07-14T10:19:03.536Z,4.20
2018-07-14T10:21:31.100Z,3.87
2018-07-14T10:23:58.623Z,3.83
2018-07-14T10:26:26.206Z,4.07
2018-07-14T10:28:53.762Z,3.90
2018-07-14T10:31:21.281Z,4.10
2018-07-14T10:33:48.903Z,4.00
2018-07-14T10:36:16.344Z,4.03
2018-07-14T10:38:43.885Z,3.73
2018-07-14T10:41:11.409Z,3.50
2018-07-14T10:43:38.944Z,3.80
2018-07-14T10:46:06.709Z,4.00
2018-07-14T10:48:34.235Z,3.50
2018-07-14T10:51:01.744Z,3.10
2018-07-14T10:53:29.273Z,3.40
2018-07-14T10:55:56.793Z,3.63
2018-07-14T10:58:24.327Z,3.80
2018-07-14T11:00:51.860Z,3.07
2018-07-14T11:03:19.406Z,3.53
2018-07-14T11:05:46.904Z,3.60
2018-07-14T11:08:14.440Z,3.50
2018-07-14T11:10:41.952Z,3.40
2018-07-14T11:13:09.484Z,3.37
2018-07-14T11:15:37.020Z,3.53
2018-07-14T11:18:04.560Z,3.60
2018-07-14T11:20:32.064Z,3.47
2018-07-14T11:22:59.616Z,3.67
2018-07-14T11:25:27.176Z,3.50
2018-07-14T11:27:54.705Z,3.80
2018-07-14T11:30:22.253Z,3.50
2018-07-14T11:32:49.776Z,3.30
2018-07-14T11:35:17.336Z,3.33
2018-07-14T11:37:44.976Z,3.47
2018-07-14T11:40:12.552Z,3.57
2018-07-14T11:42:40.083Z,3.60
2018-07-14T11:45:07.641Z,3.77
2018-07-14T11:47:35.222Z,3.27
2018-07-14T11:50:02.784Z,3.47
2018-07-14T11:52:30.326Z,3.50
2018-07-14T11:54:57.864Z,3.50
2018-07-14T11:57:25.400Z,3.70
2018-07-14T11:59:52.904Z,3.87
2018-07-14T12:02:20.477Z,3.97
2018-07-14T12:04:47.989Z,3.80
2018-07-14T12:07:15.520Z,3.43
2018-07-14T12:09:43.072Z,3.30
2018-07-14T12:12:11.009Z,3.50
2018-07-14T12:14:38.576Z,4.00
2018-07-14T12:17:06.248Z,3.70
2018-07-14T12:19:33.820Z,3.43
2018-07-14T12:22:01.352Z,3.40
2018-07-14T12:24:28.880Z,4.10
2018-07-14T12:26:56.413Z,3.83
2018-07-14T12:29:23.947Z,3.57
2018-07-14T12:31:51.471Z,3.30
2018-07-14T12:34:19.009Z,3.40
2018-07-14T12:36:46.612Z,3.43
2018-07-14T12:39:14.087Z,3.93
2018-07-14T12:41:41.631Z,3.50
2018-07-14T12:44:09.272Z,3.77
2018-07-14T12:46:36.769Z,3.63
2018-07-14T12:49:04.376Z,3.23
2018-07-14T12:51:31.919Z,3.20
2018-07-14T12:53:59.532Z,3.47
2018-07-14T12:56:27.237Z,3.93
2018-07-14T12:58:54.809Z,3.30
2018-07-14T13:01:22.397Z,3.40
2018-07-14T13:03:50.166Z,3.30
2018-07-14T13:06:17.753Z,3.30
2018-07-14T13:08:45.252Z,2.93
2018-07-14T13:11:12.858Z,3.70
2018-07-14T13:13:40.543Z,3.60
2018-07-14T13:16:08.443Z,3.80
2018-07-14T13:18:36.064Z,3.53
2018-07-14T13:21:03.632Z,3.53
2018-07-14T13:23:31.334Z,3.40
2018-07-14T13:25:59.051Z,3.50
2018-07-14T13:28:26.638Z,3.47
2018-07-14T13:30:54.192Z,3.57
2018-07-14T13:33:21.773Z,3.60
2018-07-14T13:35:49.318Z,3.67
2018-07-14T13:38:16.881Z,3.40
2018-07-14T13:40:44.416Z,3.30
2018-07-14T13:43:12.114Z,4.20
2018-07-14T13:45:39.735Z,3.30
2018-07-14T13:48:07.305Z,3.50
2018-07-14T13:50:34.888Z,3.40
2018-07-14T13:53:02.523Z,3.10
2018-07-14T13:55:30.061Z,3.30
2018-07-14T13:57:57.655Z,3.90
2018-07-14T14:00:25.254Z,3.43
2018-07-14T14:02:52.856Z,3.67
2018-07-14T14:05:20.449Z,3.47
2018-07-14T14:07:48.100Z,3.70
2018-07-14T14:10:15.772Z,3.37
2018-07-14T14:12:43.346Z,3.70
2018-07-14T14:15:11.046Z,3.50
2018-07-14T14:17:38.701Z,3.43
2018-07-14T14:20:06.332Z,3.13
2018-07-14T14:22:33.943Z,3.90
2018-07-14T14:25:01.545Z,3.73
2018-07-14T14:27:29.097Z,3.37
2018-07-14T14:29:56.804Z,3.63
2018-07-14T14:32:24.405Z,3.80
2018-07-14T14:34:52.315Z,3.50
2018-07-14T14:37:19.958Z,3.43
2018-07-14T14:39:47.585Z,3.70
2018-07-14T14:42:15.205Z,3.17
2018-07-14T14:44:42.926Z,3.20
2018-07-14T14:47:10.488Z,3.53
2018-07-14T14:49:38.260Z,3.50
2018-07-14T14:52:05.843Z,3.60
2018-07-14T14:54:33.427Z,3.60
2018-07-14T14:57:01.368Z,3.57
2018-07-14T14:59:28.973Z,3.23
2018-07-14T15:01:56.579Z,3.40
2018-07-14T15:04:24.268Z,3.10
2018-07-14T15:06:52.216Z,3.50
2018-07-14T15:09:19.952Z,3.17
2018-07-14T15:11:47.534Z,5.23
2018-07-14T15:14:15.200Z,4.63
2018-07-14T15:16:42.908Z,4.33
2018-07-14T15:19:10.492Z,3.80
2018-07-14T15:21:38.155Z,4.10
2018-07-14T15:24:05.836Z,3.80
2018-07-14T15:26:33.444Z,3.47
2018-07-14T15:29:01.112Z,3.40
2018-07-14T15:31:28.831Z,3.43
2018-07-14T15:33:56.381Z,4.47
2018-07-14T15:36:24.026Z,3.73
2018-07-14T15:38:51.629Z,3.47
2018-07-14T15:41:19.257Z,3.93
2018-07-14T15:43:46.886Z,3.43
2018-07-14T15:46:14.537Z,3.53
2018-07-14T15:48:41.997Z,3.27
2018-07-14T15:51:09.662Z,3.43
2018-07-14T15:53:37.257Z,3.87
2018-07-14T15:56:05.784Z,3.87
2018-07-14T15:58:33.398Z,3.40
2018-07-14T16:01:01.017Z,3.23
2018-07-14T16:03:28.600Z,3.30
2018-07-14T16:05:56.190Z,3.47
2018-07-14T16:08:23.814Z,3.20
2018-07-14T16:10:51.412Z,3.80
2018-07-14T16:13:18.962Z,3.53
2018-07-14T16:15:46.556Z,3.10
2018-07-14T16:18:14.221Z,3.93
2018-07-14T16:20:42.423Z,3.57
2018-07-14T16:23:10.056Z,3.30
2018-07-14T16:25:38.411Z,3.50
2018-07-14T16:28:06.060Z,3.70
2018-07-14T16:30:33.867Z,4.40
2018-07-14T16:33:01.497Z,3.50
2018-07-14T16:35:29.154Z,3.70
2018-07-14T16:37:56.586Z,4.17
2018-07-14T16:40:24.156Z,4.67
2018-07-14T16:42:51.750Z,3.67
2018-07-14T16:45:19.313Z,4.10
2018-07-14T16:47:46.904Z,5.00
2018-07-14T16:50:14.577Z,4.00
2018-07-14T16:52:42.065Z,4.47
2018-07-14T16:55:09.708Z,3.90
2018-07-14T16:57:37.368Z,3.90
2018-07-14T17:00:05.244Z,3.90
2018-07-14T17:02:33.133Z,3.70
2018-07-14T17:05:00.676Z,3.70
2018-07-14T17:07:28.256Z,3.50
2018-07-14T17:09:55.806Z,3.50
2018-07-14T17:12:23.534Z,3.87
2018-07-14T17:14:51.155Z,3.40
2018-07-14T17:17:18.880Z,5.07
2018-07-14T17:19:46.440Z,8.03
2018-07-14T17:22:14.051Z,4.83
2018-07-14T17:24:41.680Z,3.53
2018-07-14T17:27:09.358Z,3.50
2018-07-14T17:29:36.925Z,3.33
2018-07-14T17:32:04.627Z,3.83
2018-07-14T17:34:32.220Z,3.40
2018-07-14T17:36:59.808Z,3.70
2018-07-14T17:39:27.388Z,4.73
2018-07-14T17:41:54.988Z,4.70
2018-07-14T17:44:22.564Z,5.53
2018-07-14T17:46:50.180Z,4.97
2018-07-14T17:49:17.864Z,5.60
2018-07-14T17:51:45.569Z,5.53
2018-07-14T17:54:13.044Z,6.00
2018-07-14T17:56:40.638Z,4.30
2018-07-14T17:59:08.273Z,3.40
2018-07-14T18:01:35.884Z,3.90
2018-07-14T18:04:03.488Z,5.80
2018-07-14T18:06:31.053Z,6.37
2018-07-14T18:08:58.653Z,5.00
2018-07-14T18:11:26.608Z,6.90
2018-07-14T18:13:54.228Z,15.87
2018-07-14T18:16:21.853Z,10.50
2018-07-14T18:18:49.400Z,5.83
2018-07-14T18:21:17.070Z,4.97
2018-07-14T18:23:44.636Z,3.80
2018-07-14T18:26:12.190Z,4.03
2018-07-14T18:28:39.744Z,4.10
2018-07-14T18:31:07.279Z,4.00
2018-07-14T18:33:34.966Z,4.00
2018-07-14T18:36:03.696Z,4.60
2018-07-14T18:38:31.382Z,4.20
2018-07-14T18:40:58.997Z,4.60
2018-07-14T18:43:26.704Z,4.80
2018-07-14T18:45:54.288Z,5.70
2018-07-14T18:48:22.509Z,4.43
2018-07-14T18:50:51.130Z,5.00
2018-07-14T18:53:18.673Z,4.60
2018-07-14T18:55:46.172Z,4.53
2018-07-14T18:58:14.072Z,4.67
2018-07-14T19:00:41.604Z,4.40
2018-07-14T19:03:09.168Z,4.20
2018-07-14T19:05:36.787Z,4.60
2018-07-14T19:08:04.967Z,4.30
2018-07-14T19:10:32.488Z,4.57
2018-07-14T19:13:00.045Z,4.77
2018-07-14T19:15:27.678Z,5.60
2018-07-14T19:17:55.223Z,4.97
2018-07-14T19:20:22.775Z,5.40
2018-07-14T19:22:50.310Z,5.00
2018-07-14T19:25:17.876Z,4.57
2018-07-14T19:27:45.420Z,4.33
2018-07-14T19:30:13.013Z,4.77
2018-07-14T19:32:40.542Z,5.07
2018-07-14T19:35:08.321Z,5.17
2018-07-14T19:37:35.873Z,4.67
2018-07-14T19:40:03.626Z,4.90
2018-07-14T19:42:31.339Z,5.03
2018-07-14T19:44:58.900Z,4.73
2018-07-14T19:47:26.437Z,4.67
2018-07-14T19:49:53.980Z,5.10
2018-07-14T19:52:21.613Z,4.90
2018-07-14T19:54:49.157Z,4.83
2018-07-14T19:57:16.704Z,5.47
2018-07-14T19:59:44.360Z,5.57
2018-07-14T20:02:11.876Z,5.00
2018-07-14T20:04:39.429Z,5.50
2018-07-14T20:07:06.992Z,5.20
2018-07-14T20:09:34.546Z,5.37
2018-07-14T20:12:02.196Z,6.23
2018-07-14T20:14:29.740Z,5.37
2018-07-14T20:16:57.743Z,6.03
2018-07-14T20:19:25.312Z,5.43
2018-07-14T20:21:52.868Z,5.93
2018-07-14T20:24:20.469Z,6.60
2018-07-14T20:26:48.016Z,6.40
2018-07-14T20:29:15.551Z,6.47
2018-07-14T20:31:43.128Z,6.37
2018-07-14T20:34:11.211Z,6.30
2018-07-14T20:36:38.764Z,6.40
2018-07-14T20:39:06.657Z,6.30
2018-07-14T20:41:35.064Z,6.27
2018-07-14T20:44:02.808Z,6.10
2018-07-14T20:46:30.336Z,6.10
2018-07-14T20:48:57.847Z,6.50
2018-07-14T20:51:25.395Z,6.40
2018-07-14T20:53:52.925Z,6.40
2018-07-14T20:56:20.480Z,6.50
2018-07-14T20:58:48.104Z,5.67
2018-07-14T21:01:15.655Z,5.97
2018-07-14T21:03:43.211Z,6.60
2018-07-14T21:06:10.789Z,6.30
2018-07-14T21:08:38.244Z,6.60
2018-07-14T21:11:05.798Z,6.60
2018-07-14T21:13:33.313Z,7.50
2018-07-14T21:16:00.852Z,6.87
2018-07-14T21:18:28.395Z,7.13
2018-07-14T21:20:56.093Z,7.00
2018-07-14T21:23:23.520Z,6.80
2018-07-14T21:25:51.053Z,6.40
2018-07-14T21:28:18.559Z,6.73
2018-07-14T21:30:46.008Z,7.30
2018-07-14T21:33:13.526Z,7.17
2018-07-14T21:35:41.052Z,6.63
2018-07-14T21:38:08.572Z,6.97
2018-07-14T21:40:36.136Z,7.30
2018-07-14T21:43:03.720Z,7.67
2018-07-14T21:45:31.257Z,8.13
2018-07-14T21:47:58.816Z,7.57
2018-07-14T21:50:26.344Z,7.50
2018-07-14T21:52:53.848Z,7.50
2018-07-14T21:55:21.380Z,7.10
2018-07-14T21:57:48.888Z,7.77
2018-07-14T22:00:26.026Z,8.20
2018-07-14T22:02:53.554Z,7.67
2018-07-14T22:05:21.076Z,7.10
2018-07-14T22:07:48.588Z,7.73
2018-07-14T22:10:16.133Z,7.30
2018-07-14T22:12:43.673Z,7.90
2018-07-14T22:15:11.257Z,7.50
2018-07-14T22:17:38.757Z,7.93
2018-07-14T22:20:06.361Z,8.53
2018-07-14T22:22:33.911Z,8.57
2018-07-14T22:25:01.428Z,7.93
2018-07-14T22:27:28.988Z,7.57
2018-07-14T22:29:56.533Z,8.57
2018-07-14T22:32:24.056Z,7.57
2018-07-14T22:34:51.580Z,7.97
2018-07-14T22:37:19.264Z,8.03
2018-07-14T22:39:46.768Z,8.37
2018-07-14T22:42:14.351Z,8.53
2018-07-14T22:44:41.861Z,8.80
2018-07-14T22:47:09.395Z,8.73
2018-07-14T22:49:36.914Z,8.60
2018-07-14T22:52:04.440Z,8.80
2018-07-14T22:54:31.944Z,8.73
2018-07-14T22:56:59.523Z,8.87
2018-07-14T22:59:27.038Z,8.73
2018-07-14T23:01:54.585Z,9.13
2018-07-14T23:04:22.104Z,8.87
2018-07-14T23:06:49.692Z,8.37
2018-07-14T23:09:17.212Z,8.93
2018-07-14T23:11:44.772Z,8.63
2018-07-14T23:14:12.292Z,8.33
2018-07-14T23:16:39.823Z,8.20
2018-07-14T23:19:07.337Z,9.00
2018-07-14T23:21:34.879Z,8.50
2018-07-14T23:24:02.484Z,8.43
2018-07-14T23:26:30.030Z,8.90
2018-07-14T23:28:57.532Z,8.80
2018-07-14T23:31:25.161Z,8.83
2018-07-14T23:33:52.684Z,9.10
2018-07-14T23:36:20.213Z,8.97
2018-07-14T23:38:47.721Z,8.63
2018-07-14T23:41:15.260Z,8.73
2018-07-14T23:43:42.792Z,8.80
2018-07-14T23:46:10.336Z,9.20
2018-07-14T23:48:37.846Z,8.70
2018-07-14T23:51:05.681Z,8.53
2018-07-14T23:53:33.204Z,8.87
2018-07-14T23:56:00.806Z,8.90
2018-07-14T23:58:28.324Z,8.80
